sensor_id;sensor_type;location;lat;lon;timestamp;temperature;humidity
13091;DHT22;6611;52.604;13.438;2024-01-16T00:04:53;0.47;76.71
13091;DHT22;6611;52.604;13.438;2024-01-16T00:09:55;0.64;76.15
13091;DHT22;6611;52.604;13.438;2024-01-16T00:14:56;0.57;76.65
13091;DHT22;6611;52.604;13.438;2024-01-16T00:19:59;0.61;76.09
13091;DHT22;6611;52.604;13.438;2024-01-16T00:25:01;0.54;76.69
13091;DHT22;6611;52.604;13.438;2024-01-16T00:30:03;0.50;76.72
13091;DHT22;6611;52.604;13.438;2024-01-16T00:35:07;0.57;76.70
13091;DHT22;6611;52.604;13.438;2024-01-16T00:40:10;0.55;76.56
13091;DHT22;6611;52.604;13.438;2024-01-16T00:45:11;0.42;78.76
13091;DHT22;6611;52.604;13.438;2024-01-16T00:50:14;0.42;80.02
13091;DHT22;6611;52.604;13.438;2024-01-16T00:55:16;0.13;81.64
13091;DHT22;6611;52.604;13.438;2024-01-16T01:00:18;0.18;81.99
13091;DHT22;6611;52.604;13.438;2024-01-16T01:05:21;-0.01;82.83
13091;DHT22;6611;52.604;13.438;2024-01-16T01:10:28;-0.14;84.03
13091;DHT22;6611;52.604;13.438;2024-01-16T01:15:30;-0.28;84.58
13091;DHT22;6611;52.604;13.438;2024-01-16T01:20:33;-0.32;85.26
13091;DHT22;6611;52.604;13.438;2024-01-16T01:25:34;-0.38;85.60
13091;DHT22;6611;52.604;13.438;2024-01-16T01:30:36;-0.36;85.28
13091;DHT22;6611;52.604;13.438;2024-01-16T01:35:39;-0.33;85.01
13091;DHT22;6611;52.604;13.438;2024-01-16T01:40:41;-0.25;85.07
13091;DHT22;6611;52.604;13.438;2024-01-16T01:45:43;-0.25;85.44
13091;DHT22;6611;52.604;13.438;2024-01-16T01:50:46;-0.25;85.35
13091;DHT22;6611;52.604;13.438;2024-01-16T01:55:48;-0.32;85.62
13091;DHT22;6611;52.604;13.438;2024-01-16T02:00:50;-0.25;85.35
13091;DHT22;6611;52.604;13.438;2024-01-16T02:05:53;-0.25;85.26
13091;DHT22;6611;52.604;13.438;2024-01-16T02:10:55;-0.29;84.66
13091;DHT22;6611;52.604;13.438;2024-01-16T02:15:57;-0.39;84.62
13091;DHT22;6611;52.604;13.438;2024-01-16T02:21:02;-0.46;84.86
13091;DHT22;6611;52.604;13.438;2024-01-16T02:26:07;-0.39;84.87
13091;DHT22;6611;52.604;13.438;2024-01-16T02:31:09;-0.36;84.50
13091;DHT22;6611;52.604;13.438;2024-01-16T02:36:11;-0.49;84.43
13091;DHT22;6611;52.604;13.438;2024-01-16T02:41:16;-0.92;84.42
13091;DHT22;6611;52.604;13.438;2024-01-16T02:46:18;-0.94;84.52
13091;DHT22;6611;52.604;13.438;2024-01-16T02:51:19;-0.97;84.10
13091;DHT22;6611;52.604;13.438;2024-01-16T02:56:22;-1.12;83.61
13091;DHT22;6611;52.604;13.438;2024-01-16T03:01:24;-1.19;83.59
13091;DHT22;6611;52.604;13.438;2024-01-16T03:06:26;-1.19;83.81
13091;DHT22;6611;52.604;13.438;2024-01-16T03:11:30;-1.31;83.35
13091;DHT22;6611;52.604;13.438;2024-01-16T03:16:33;-1.50;83.45
13091;DHT22;6611;52.604;13.438;2024-01-16T03:21:35;-1.52;83.61
13091;DHT22;6611;52.604;13.438;2024-01-16T03:26:39;-1.50;84.11
13091;DHT22;6611;52.604;13.438;2024-01-16T03:31:42;-1.47;84.06
13091;DHT22;6611;52.604;13.438;2024-01-16T03:36:44;-1.56;84.25
13091;DHT22;6611;52.604;13.438;2024-01-16T03:41:47;-1.19;84.21
13091;DHT22;6611;52.604;13.438;2024-01-16T03:46:49;-1.29;84.29
13091;DHT22;6611;52.604;13.438;2024-01-16T03:51:51;-1.35;85.38
13091;DHT22;6611;52.604;13.438;2024-01-16T03:56:54;-1.18;85.09
13091;DHT22;6611;52.604;13.438;2024-01-16T04:01:56;-1.07;84.86
13091;DHT22;6611;52.604;13.438;2024-01-16T04:06:57;-0.95;84.77
13091;DHT22;6611;52.604;13.438;2024-01-16T04:12:01;-1.01;85.06
13091;DHT22;6611;52.604;13.438;2024-01-16T04:17:03;-1.00;85.30
13091;DHT22;6611;52.604;13.438;2024-01-16T04:22:04;-1.00;85.49
13091;DHT22;6611;52.604;13.438;2024-01-16T04:27:10;-0.98;84.76
13091;DHT22;6611;52.604;13.438;2024-01-16T04:32:11;-1.09;85.25
13091;DHT22;6611;52.604;13.438;2024-01-16T04:37:13;-1.09;85.41
13091;DHT22;6611;52.604;13.438;2024-01-16T04:42:16;-0.95;85.02
13091;DHT22;6611;52.604;13.438;2024-01-16T04:47:19;-0.90;84.93
13091;DHT22;6611;52.604;13.438;2024-01-16T04:52:20;-0.87;85.22
13091;DHT22;6611;52.604;13.438;2024-01-16T04:57:23;-0.94;85.17
13091;DHT22;6611;52.604;13.438;2024-01-16T05:02:25;-1.02;85.27
13091;DHT22;6611;52.604;13.438;2024-01-16T05:07:26;-1.01;85.37
13091;DHT22;6611;52.604;13.438;2024-01-16T05:12:29;-0.95;85.14
13091;DHT22;6611;52.604;13.438;2024-01-16T05:17:31;-0.91;85.01
13091;DHT22;6611;52.604;13.438;2024-01-16T05:22:33;-1.01;85.20
13091;DHT22;6611;52.604;13.438;2024-01-16T05:27:36;-1.02;85.23
13091;DHT22;6611;52.604;13.438;2024-01-16T05:32:37;-0.90;84.94
13091;DHT22;6611;52.604;13.438;2024-01-16T05:37:39;-0.91;84.71
13091;DHT22;6611;52.604;13.438;2024-01-16T05:42:42;-0.98;85.11
13091;DHT22;6611;52.604;13.438;2024-01-16T05:47:44;-1.00;84.71
13091;DHT22;6611;52.604;13.438;2024-01-16T05:52:45;-1.02;84.41
13091;DHT22;6611;52.604;13.438;2024-01-16T05:57:48;-1.04;84.51
13091;DHT22;6611;52.604;13.438;2024-01-16T06:02:50;-1.18;84.22
13091;DHT22;6611;52.604;13.438;2024-01-16T06:07:52;-1.25;84.31
13091;DHT22;6611;52.604;13.438;2024-01-16T06:12:55;-1.36;84.83
13091;DHT22;6611;52.604;13.438;2024-01-16T06:17:56;-1.39;85.28
13091;DHT22;6611;52.604;13.438;2024-01-16T06:22:58;-1.26;84.73
13091;DHT22;6611;52.604;13.438;2024-01-16T06:28:01;-1.24;84.62
13091;DHT22;6611;52.604;13.438;2024-01-16T06:33:03;-1.29;85.02
13091;DHT22;6611;52.604;13.438;2024-01-16T06:38:05;-1.26;85.34
13091;DHT22;6611;52.604;13.438;2024-01-16T06:43:08;-1.09;85.09
13091;DHT22;6611;52.604;13.438;2024-01-16T06:48:11;-1.08;85.08
13091;DHT22;6611;52.604;13.438;2024-01-16T06:53:13;-1.07;85.13
13091;DHT22;6611;52.604;13.438;2024-01-16T06:58:16;-1.05;85.16
13091;DHT22;6611;52.604;13.438;2024-01-16T07:03:17;-0.94;85.11
13091;DHT22;6611;52.604;13.438;2024-01-16T07:08:19;-1.04;85.52
13091;DHT22;6611;52.604;13.438;2024-01-16T07:13:24;-1.00;85.60
13091;DHT22;6611;52.604;13.438;2024-01-16T07:18:27;-0.95;85.62
13091;DHT22;6611;52.604;13.438;2024-01-16T07:23:28;-0.95;85.16
13091;DHT22;6611;52.604;13.438;2024-01-16T07:28:31;-1.00;85.06
13091;DHT22;6611;52.604;13.438;2024-01-16T07:33:33;-1.04;85.04
13091;DHT22;6611;52.604;13.438;2024-01-16T07:38:35;-1.07;85.37
13091;DHT22;6611;52.604;13.438;2024-01-16T07:43:39;-1.02;85.74
13091;DHT22;6611;52.604;13.438;2024-01-16T07:48:40;-0.95;85.75
13091;DHT22;6611;52.604;13.438;2024-01-16T07:53:42;-0.92;85.60
13091;DHT22;6611;52.604;13.438;2024-01-16T07:58:45;-0.85;85.61
13091;DHT22;6611;52.604;13.438;2024-01-16T08:03:47;-0.64;85.19
13091;DHT22;6611;52.604;13.438;2024-01-16T08:08:48;-0.57;84.95
13091;DHT22;6611;52.604;13.438;2024-01-16T08:13:51;-0.60;85.00
13091;DHT22;6611;52.604;13.438;2024-01-16T08:18:53;-0.52;84.89
13091;DHT22;6611;52.604;13.438;2024-01-16T08:23:54;-0.42;84.70
13091;DHT22;6611;52.604;13.438;2024-01-16T08:28:57;-0.40;84.72
13091;DHT22;6611;52.604;13.438;2024-01-16T08:33:59;-0.29;84.41
13091;DHT22;6611;52.604;13.438;2024-01-16T08:39:01;-0.35;84.47
13091;DHT22;6611;52.604;13.438;2024-01-16T08:44:04;-0.31;84.39
13091;DHT22;6611;52.604;13.438;2024-01-16T08:49:06;-0.23;84.35
13091;DHT22;6611;52.604;13.438;2024-01-16T08:54:09;-0.12;84.65
13091;DHT22;6611;52.604;13.438;2024-01-16T08:59:12;0.18;84.11
13091;DHT22;6611;52.604;13.438;2024-01-16T09:04:14;0.30;82.88
13091;DHT22;6611;52.604;13.438;2024-01-16T09:09:15;0.20;83.10
13091;DHT22;6611;52.604;13.438;2024-01-16T09:14:18;0.41;82.46
13091;DHT22;6611;52.604;13.438;2024-01-16T09:19:20;0.57;82.02
13091;DHT22;6611;52.604;13.438;2024-01-16T09:24:22;0.51;82.48
13091;DHT22;6611;52.604;13.438;2024-01-16T09:29:25;0.75;82.08
13091;DHT22;6611;52.604;13.438;2024-01-16T09:34:28;0.76;81.81
13091;DHT22;6611;52.604;13.438;2024-01-16T09:39:30;0.87;81.43
13091;DHT22;6611;52.604;13.438;2024-01-16T09:44:33;0.66;81.73
13091;DHT22;6611;52.604;13.438;2024-01-16T09:49:35;0.51;83.03
13091;DHT22;6611;52.604;13.438;2024-01-16T09:54:37;0.65;82.66
13091;DHT22;6611;52.604;13.438;2024-01-16T09:59:40;0.80;82.41
13091;DHT22;6611;52.604;13.438;2024-01-16T10:04:42;0.80;83.10
13091;DHT22;6611;52.604;13.438;2024-01-16T10:09:44;0.80;83.05
13091;DHT22;6611;52.604;13.438;2024-01-16T10:14:48;0.83;82.97
13091;DHT22;6611;52.604;13.438;2024-01-16T10:19:52;0.90;82.82
13091;DHT22;6611;52.604;13.438;2024-01-16T10:25:04;0.95;82.98
13091;DHT22;6611;52.604;13.438;2024-01-16T10:30:09;1.08;83.14
13091;DHT22;6611;52.604;13.438;2024-01-16T10:35:12;1.17;82.46
13091;DHT22;6611;52.604;13.438;2024-01-16T10:40:15;1.26;81.84
13091;DHT22;6611;52.604;13.438;2024-01-16T10:45:20;1.34;81.80
13091;DHT22;6611;52.604;13.438;2024-01-16T10:50:22;1.20;81.91
13091;DHT22;6611;52.604;13.438;2024-01-16T10:55:24;1.38;81.51
13091;DHT22;6611;52.604;13.438;2024-01-16T11:00:28;1.35;81.79
13091;DHT22;6611;52.604;13.438;2024-01-16T11:05:34;1.44;82.10
13091;DHT22;6611;52.604;13.438;2024-01-16T11:10:37;1.45;81.52
13091;DHT22;6611;52.604;13.438;2024-01-16T11:15:41;1.47;80.58
13091;DHT22;6611;52.604;13.438;2024-01-16T11:20:43;1.59;80.59
13091;DHT22;6611;52.604;13.438;2024-01-16T11:25:45;1.51;81.08
13091;DHT22;6611;52.604;13.438;2024-01-16T11:30:48;1.44;82.18
13091;DHT22;6611;52.604;13.438;2024-01-16T11:35:50;1.45;82.31
13091;DHT22;6611;52.604;13.438;2024-01-16T11:40:52;1.44;81.90
13091;DHT22;6611;52.604;13.438;2024-01-16T11:45:55;1.48;82.44
13091;DHT22;6611;52.604;13.438;2024-01-16T11:50:58;1.39;82.59
13091;DHT22;6611;52.604;13.438;2024-01-16T11:56:15;1.42;82.84
13091;DHT22;6611;52.604;13.438;2024-01-16T12:01:22;1.49;82.68
13091;DHT22;6611;52.604;13.438;2024-01-16T12:06:23;1.42;82.88
13091;DHT22;6611;52.604;13.438;2024-01-16T12:11:25;1.39;83.38
13091;DHT22;6611;52.604;13.438;2024-01-16T12:16:28;1.55;83.59
13091;DHT22;6611;52.604;13.438;2024-01-16T12:21:30;1.62;83.58
13091;DHT22;6611;52.604;13.438;2024-01-16T12:26:34;1.56;83.59
13091;DHT22;6611;52.604;13.438;2024-01-16T12:31:37;1.48;83.90
13091;DHT22;6611;52.604;13.438;2024-01-16T12:36:38;1.47;83.56
13091;DHT22;6611;52.604;13.438;2024-01-16T12:41:42;1.48;83.35
13091;DHT22;6611;52.604;13.438;2024-01-16T12:46:53;1.39;83.57
13091;DHT22;6611;52.604;13.438;2024-01-16T12:52:19;1.37;83.83
13091;DHT22;6611;52.604;13.438;2024-01-16T12:57:21;1.48;83.67
13091;DHT22;6611;52.604;13.438;2024-01-16T13:02:25;1.55;83.46
13091;DHT22;6611;52.604;13.438;2024-01-16T13:07:27;1.52;83.12
13091;DHT22;6611;52.604;13.438;2024-01-16T13:12:31;1.66;82.43
13091;DHT22;6611;52.604;13.438;2024-01-16T13:17:35;1.62;82.39
13091;DHT22;6611;52.604;13.438;2024-01-16T13:22:36;1.79;82.23
13091;DHT22;6611;52.604;13.438;2024-01-16T13:27:38;1.80;82.13
13091;DHT22;6611;52.604;13.438;2024-01-16T13:32:41;1.75;82.67
13091;DHT22;6611;52.604;13.438;2024-01-16T13:37:43;1.75;82.46
13091;DHT22;6611;52.604;13.438;2024-01-16T13:42:45;1.80;82.47
13091;DHT22;6611;52.604;13.438;2024-01-16T13:47:48;1.69;82.30
13091;DHT22;6611;52.604;13.438;2024-01-16T13:52:50;1.63;81.88
13091;DHT22;6611;52.604;13.438;2024-01-16T13:57:51;1.65;82.37
13091;DHT22;6611;52.604;13.438;2024-01-16T14:02:54;1.67;81.42
13091;DHT22;6611;52.604;13.438;2024-01-16T14:07:56;1.66;82.31
13091;DHT22;6611;52.604;13.438;2024-01-16T14:12:58;2.13;81.12
13091;DHT22;6611;52.604;13.438;2024-01-16T14:18:01;2.35;81.09
13091;DHT22;6611;52.604;13.438;2024-01-16T14:23:03;2.07;78.95
13091;DHT22;6611;52.604;13.438;2024-01-16T14:28:05;1.76;79.93
13091;DHT22;6611;52.604;13.438;2024-01-16T14:33:08;1.69;80.80
13091;DHT22;6611;52.604;13.438;2024-01-16T14:38:10;1.75;80.92
13091;DHT22;6611;52.604;13.438;2024-01-16T14:43:11;1.67;81.29
13091;DHT22;6611;52.604;13.438;2024-01-16T14:48:15;1.65;81.61
13091;DHT22;6611;52.604;13.438;2024-01-16T14:53:17;1.63;81.98
13091;DHT22;6611;52.604;13.438;2024-01-16T14:58:19;1.63;82.32
13091;DHT22;6611;52.604;13.438;2024-01-16T15:03:24;1.56;82.45
13091;DHT22;6611;52.604;13.438;2024-01-16T15:08:27;1.63;82.53
13091;DHT22;6611;52.604;13.438;2024-01-16T15:13:31;1.55;82.87
13091;DHT22;6611;52.604;13.438;2024-01-16T15:18:34;1.54;82.46
13091;DHT22;6611;52.604;13.438;2024-01-16T15:23:37;1.49;82.94
13091;DHT22;6611;52.604;13.438;2024-01-16T15:28:38;1.55;82.12
13091;DHT22;6611;52.604;13.438;2024-01-16T15:33:42;1.44;83.06
13091;DHT22;6611;52.604;13.438;2024-01-16T15:38:44;1.48;83.07
13091;DHT22;6611;52.604;13.438;2024-01-16T15:43:46;1.54;82.97
13091;DHT22;6611;52.604;13.438;2024-01-16T15:48:49;1.51;83.28
13091;DHT22;6611;52.604;13.438;2024-01-16T15:53:51;1.58;83.47
13091;DHT22;6611;52.604;13.438;2024-01-16T15:58:52;1.60;83.78
13091;DHT22;6611;52.604;13.438;2024-01-16T16:03:55;1.55;83.60
13091;DHT22;6611;52.604;13.438;2024-01-16T16:08:57;1.58;83.54
13091;DHT22;6611;52.604;13.438;2024-01-16T16:13:58;1.37;84.27
13091;DHT22;6611;52.604;13.438;2024-01-16T16:19:02;1.55;83.81
13091;DHT22;6611;52.604;13.438;2024-01-16T16:24:04;1.48;83.99
13091;DHT22;6611;52.604;13.438;2024-01-16T16:29:07;1.58;83.84
13091;DHT22;6611;52.604;13.438;2024-01-16T16:34:11;1.56;83.86
13091;DHT22;6611;52.604;13.438;2024-01-16T16:39:14;1.45;84.20
13091;DHT22;6611;52.604;13.438;2024-01-16T16:44:17;1.41;84.52
13091;DHT22;6611;52.604;13.438;2024-01-16T16:49:20;1.44;84.83
13091;DHT22;6611;52.604;13.438;2024-01-16T16:54:21;1.62;83.94
13091;DHT22;6611;52.604;13.438;2024-01-16T16:59:23;1.63;84.03
13091;DHT22;6611;52.604;13.438;2024-01-16T17:04:26;1.65;83.60
13091;DHT22;6611;52.604;13.438;2024-01-16T17:09:27;1.69;83.42
13091;DHT22;6611;52.604;13.438;2024-01-16T17:14:29;1.65;83.54
13091;DHT22;6611;52.604;13.438;2024-01-16T17:19:32;1.72;83.18
13091;DHT22;6611;52.604;13.438;2024-01-16T17:24:34;1.72;83.15
13091;DHT22;6611;52.604;13.438;2024-01-16T17:29:37;1.66;83.11
13091;DHT22;6611;52.604;13.438;2024-01-16T17:34:40;1.65;82.72
13091;DHT22;6611;52.604;13.438;2024-01-16T17:39:42;1.62;82.57
13091;DHT22;6611;52.604;13.438;2024-01-16T17:44:46;1.60;82.35
13091;DHT22;6611;52.604;13.438;2024-01-16T17:49:49;1.59;82.62
13091;DHT22;6611;52.604;13.438;2024-01-16T17:54:51;1.52;82.41
13091;DHT22;6611;52.604;13.438;2024-01-16T17:59:53;1.70;82.14
13091;DHT22;6611;52.604;13.438;2024-01-16T18:04:56;1.67;81.37
13091;DHT22;6611;52.604;13.438;2024-01-16T18:09:58;1.70;81.22
13091;DHT22;6611;52.604;13.438;2024-01-16T18:14:59;1.70;81.25
13091;DHT22;6611;52.604;13.438;2024-01-16T18:20:03;1.72;80.88
13091;DHT22;6611;52.604;13.438;2024-01-16T18:25:08;1.72;80.88
13091;DHT22;6611;52.604;13.438;2024-01-16T18:30:11;1.60;80.79
13091;DHT22;6611;52.604;13.438;2024-01-16T18:35:16;1.62;80.67
13091;DHT22;6611;52.604;13.438;2024-01-16T18:40:19;1.59;81.14
13091;DHT22;6611;52.604;13.438;2024-01-16T18:45:22;1.65;80.70
13091;DHT22;6611;52.604;13.438;2024-01-16T18:50:25;1.59;80.91
13091;DHT22;6611;52.604;13.438;2024-01-16T18:55:26;1.56;81.12
13091;DHT22;6611;52.604;13.438;2024-01-16T19:00:28;1.52;80.98
13091;DHT22;6611;52.604;13.438;2024-01-16T19:05:31;1.49;81.09
13091;DHT22;6611;52.604;13.438;2024-01-16T19:10:34;1.60;80.69
13091;DHT22;6611;52.604;13.438;2024-01-16T19:15:36;1.62;80.39
13091;DHT22;6611;52.604;13.438;2024-01-16T19:20:39;1.59;80.85
13091;DHT22;6611;52.604;13.438;2024-01-16T19:25:41;1.47;81.18
13091;DHT22;6611;52.604;13.438;2024-01-16T19:30:42;1.54;81.03
13091;DHT22;6611;52.604;13.438;2024-01-16T19:35:46;1.59;81.12
13091;DHT22;6611;52.604;13.438;2024-01-16T19:40:48;1.60;80.54
13091;DHT22;6611;52.604;13.438;2024-01-16T19:45:50;1.67;80.40
13091;DHT22;6611;52.604;13.438;2024-01-16T19:50:54;1.58;80.65
13091;DHT22;6611;52.604;13.438;2024-01-16T19:55:55;1.47;81.68
13091;DHT22;6611;52.604;13.438;2024-01-16T20:00:59;1.60;80.65
13091;DHT22;6611;52.604;13.438;2024-01-16T20:06:04;1.56;80.71
13091;DHT22;6611;52.604;13.438;2024-01-16T20:11:06;1.49;81.31
13091;DHT22;6611;52.604;13.438;2024-01-16T20:16:08;1.45;81.16
13091;DHT22;6611;52.604;13.438;2024-01-16T20:21:12;1.51;80.91
13091;DHT22;6611;52.604;13.438;2024-01-16T20:26:13;1.56;80.47
13091;DHT22;6611;52.604;13.438;2024-01-16T20:31:15;1.59;79.58
13091;DHT22;6611;52.604;13.438;2024-01-16T20:36:18;1.58;79.04
13091;DHT22;6611;52.604;13.438;2024-01-16T20:41:20;1.54;79.22
13091;DHT22;6611;52.604;13.438;2024-01-16T20:46:22;1.60;78.47
13091;DHT22;6611;52.604;13.438;2024-01-16T20:51:25;1.60;78.58
13091;DHT22;6611;52.604;13.438;2024-01-16T20:56:29;1.60;78.65
13091;DHT22;6611;52.604;13.438;2024-01-16T21:01:30;1.45;78.97
13091;DHT22;6611;52.604;13.438;2024-01-16T21:06:33;1.49;78.41
13091;DHT22;6611;52.604;13.438;2024-01-16T21:11:35;1.48;77.68
13091;DHT22;6611;52.604;13.438;2024-01-16T21:16:36;1.49;77.82
13091;DHT22;6611;52.604;13.438;2024-01-16T21:21:42;1.38;77.74
13091;DHT22;6611;52.604;13.438;2024-01-16T21:26:44;1.45;77.86
13091;DHT22;6611;52.604;13.438;2024-01-16T21:31:47;1.48;77.81
13091;DHT22;6611;52.604;13.438;2024-01-16T21:36:51;1.41;77.45
13091;DHT22;6611;52.604;13.438;2024-01-16T21:41:53;1.32;77.54
13091;DHT22;6611;52.604;13.438;2024-01-16T21:46:55;1.27;78.12
13091;DHT22;6611;52.604;13.438;2024-01-16T21:51:58;1.11;78.67
13091;DHT22;6611;52.604;13.438;2024-01-16T21:57:01;0.86;79.57
13091;DHT22;6611;52.604;13.438;2024-01-16T22:02:03;0.85;80.07
13091;DHT22;6611;52.604;13.438;2024-01-16T22:07:07;0.90;79.29
13091;DHT22;6611;52.604;13.438;2024-01-16T22:12:09;1.07;78.20
13091;DHT22;6611;52.604;13.438;2024-01-16T22:17:10;0.93;78.74
13091;DHT22;6611;52.604;13.438;2024-01-16T22:22:14;0.82;79.23
13091;DHT22;6611;52.604;13.438;2024-01-16T22:27:16;0.76;79.95
13091;DHT22;6611;52.604;13.438;2024-01-16T22:32:18;0.68;80.47
13091;DHT22;6611;52.604;13.438;2024-01-16T22:37:23;0.62;80.21
13091;DHT22;6611;52.604;13.438;2024-01-16T22:42:26;0.52;80.30
13091;DHT22;6611;52.604;13.438;2024-01-16T22:47:28;0.51;80.17
13091;DHT22;6611;52.604;13.438;2024-01-16T22:52:31;0.48;80.31
13091;DHT22;6611;52.604;13.438;2024-01-16T22:57:32;0.54;80.13
13091;DHT22;6611;52.604;13.438;2024-01-16T23:02:34;0.42;80.36
13091;DHT22;6611;52.604;13.438;2024-01-16T23:07:37;0.48;80.15
13091;DHT22;6611;52.604;13.438;2024-01-16T23:12:39;0.50;79.85
13091;DHT22;6611;52.604;13.438;2024-01-16T23:17:40;0.40;79.94
13091;DHT22;6611;52.604;13.438;2024-01-16T23:22:44;0.30;80.39
13091;DHT22;6611;52.604;13.438;2024-01-16T23:27:45;0.33;80.01
13091;DHT22;6611;52.604;13.438;2024-01-16T23:32:49;0.27;79.93
13091;DHT22;6611;52.604;13.438;2024-01-16T23:37:52;0.14;80.30
13091;DHT22;6611;52.604;13.438;2024-01-16T23:42:55;0.10;80.32
13091;DHT22;6611;52.604;13.438;2024-01-16T23:47:57;0.02;81.07
13091;DHT22;6611;52.604;13.438;2024-01-16T23:53:00;-0.07;80.86
13091;DHT22;6611;52.604;13.438;2024-01-16T23:58:03;-0.15;81.08
